Time;durP1;ratioP1;P1;durP2;ratioP2;P2;SDS_P1;SDS_P2;PMS_P1;PMS_P2;Temp;Humidity;BMP_temperature;BMP_pressure;BME280_temperature;BME280_humidity;BME280_pressure;Samples;Min_cycle;Max_cycle;Signal;HPM_P1;HPM_P2
2022/09/27 00:00:13;;;;;;;59.92;39.83;;;;;;;27.99;76.84;98264.44;4985398;28;20056;-68
2022/09/27 00:03:01;;;;;;;53.17;37.22;;;;;;;27.91;77.10;98266.13;4986382;28;20842;-68
2022/09/27 00:05:43;;;;;;;49.40;38.13;;;;;;;28.03;76.65;98267.31;4987265;28;20081;-68
2022/09/27 00:08:32;;;;;;;52.92;36.83;;;;;;;28.23;75.86;98274.75;4987096;28;20058;-68
2022/09/27 00:11:32;;;;;;;46.90;36.55;;;;;;;28.28;75.49;98274.53;4979435;28;20058;-68
2022/09/27 00:14:17;;;;;;;53.25;39.63;;;;;;;27.96;76.79;98267.09;4989330;28;20112;-67
2022/09/27 00:17:06;;;;;;;54.92;37.65;;;;;;;28.20;75.93;98272.66;4990007;28;20070;-68
2022/09/27 00:19:55;;;;;;;51.20;38.15;;;;;;;28.25;75.63;98271.66;4986163;28;20498;-68
2022/09/27 00:22:38;;;;;;;49.75;37.00;;;;;;;28.30;75.01;98272.22;4988092;28;20042;-68
2022/09/27 00:25:27;;;;;;;51.35;37.70;;;;;;;28.05;76.32;98278.81;4987811;28;20066;-68
2022/09/27 00:28:09;;;;;;;50.88;39.58;;;;;;;27.90;76.93;98286.59;4987891;28;20054;-69
2022/09/27 00:30:59;;;;;;;53.08;40.55;;;;;;;27.81;77.37;98288.59;4971081;28;20047;-70
2022/09/27 00:33:42;;;;;;;57.45;40.35;;;;;;;27.99;76.45;98285.72;4978989;28;20370;-70
2022/09/27 00:36:33;;;;;;;56.80;43.67;;;;;;;28.05;76.12;98287.09;4972333;28;20133;-68
2022/09/27 00:39:16;;;;;;;60.10;42.13;;;;;;;28.16;75.78;98288.28;4979100;28;20054;-67
2022/09/27 00:42:04;;;;;;;59.55;43.92;;;;;;;28.17;75.59;98289.91;4971013;28;20046;-67
2022/09/27 00:45:07;;;;;;;65.15;45.08;;;;;;;28.00;76.15;98295.59;4974030;28;20160;-70
2022/09/27 00:48:02;;;;;;;73.10;50.65;;;;;;;27.67;77.44;98297.16;4987731;28;20069;-68
2022/09/27 00:50:53;;;;;;;77.53;51.78;;;;;;;28.05;75.93;98298.13;4988594;28;20065;-68
2022/09/27 00:53:50;;;;;;;79.63;53.67;;;;;;;28.05;75.80;98298.13;4987460;28;20082;-68
2022/09/27 00:56:36;;;;;;;82.43;55.13;;;;;;;28.13;75.58;98294.50;4971509;28;20105;-68
2022/09/27 00:59:39;;;;;;;73.60;52.40;;;;;;;27.91;76.14;98298.44;4967783;28;20050;-68
2022/09/27 01:02:15;;;;;;;78.50;52.65;;;;;;;27.71;77.30;98300.06;4975999;28;20050;-68
2022/09/27 01:05:09;;;;;;;76.63;53.90;;;;;;;27.98;76.11;98297.91;4972922;28;20374;-68
2022/09/27 01:07:55;;;;;;;78.28;52.15;;;;;;;27.98;76.32;98293.19;4987160;28;20376;-68
2022/09/27 01:11:09;;;;;;;81.70;54.00;;;;;;;28.05;76.01;98303.66;4986620;28;20053;-68
2022/09/27 01:14:06;;;;;;;80.35;53.78;;;;;;;28.21;75.32;98306.59;4969951;28;20097;-69
2022/09/27 01:17:12;;;;;;;77.63;51.95;;;;;;;28.17;75.33;98300.94;4969951;28;20050;-69
2022/09/27 01:20:16;;;;;;;85.32;57.20;;;;;;;27.93;75.92;98312.69;4969748;28;20046;-69
2022/09/27 01:23:19;;;;;;;84.45;53.30;;;;;;;27.92;76.42;98314.66;4971887;28;20490;-68
2022/09/27 01:26:13;;;;;;;;;;;;;;;27.73;77.24;98317.06;4985592;28;20050;-68
2022/09/27 01:29:31;;;;;;;82.28;54.00;;;;;;;27.52;78.27;98314.31;4971137;28;19949;-68
2022/09/27 01:32:29;;;;;;;84.90;55.45;;;;;;;27.65;78.03;98318.75;4961646;28;20058;-68
2022/09/27 01:35:21;;;;;;;98.80;58.38;;;;;;;27.53;78.20;98315.91;4969156;28;20050;-67
2022/09/27 01:38:28;;;;;;;99.00;59.28;;;;;;;27.50;78.40;98311.91;4985981;28;20064;-68
2022/09/27 01:41:53;;;;;;;89.32;57.78;;;;;;;27.59;78.50;98322.03;4973120;28;20422;-68
2022/09/27 01:44:54;;;;;;;98.88;60.45;;;;;;;27.79;77.41;98321.22;4960018;28;20167;-68
2022/09/27 01:47:49;;;;;;;95.78;60.63;;;;;;;27.90;76.60;98319.69;4970134;28;20046;-68
2022/09/27 01:51:10;;;;;;;103.55;61.40;;;;;;;27.89;77.12;98322.78;4985526;28;20120;-68
2022/09/27 01:54:08;;;;;;;96.32;62.28;;;;;;;27.83;77.54;98327.69;4969370;28;20046;-68
2022/09/27 01:57:30;;;;;;;91.20;59.63;;;;;;;28.08;76.72;98330.56;4968740;28;20065;-69
2022/09/27 02:00:26;;;;;;;96.85;62.38;;;;;;;28.08;76.76;98336.88;4982429;28;20043;-68
2022/09/27 02:03:19;;;;;;;100.60;64.57;;;;;;;28.00;77.20;98334.22;4977751;28;20058;-68
2022/09/27 02:06:54;;;;;;;103.40;64.97;;;;;;;28.23;76.30;98332.69;4925746;29;20052;-68
2022/09/27 02:09:47;;;;;;;104.75;67.13;;;;;;;27.99;77.37;98338.91;4909987;29;20048;-69
2022/09/27 02:12:56;;;;;;;106.82;67.53;;;;;;;28.21;76.15;98340.50;4961013;28;20038;-68
2022/09/27 02:16:20;;;;;;;110.57;71.43;;;;;;;28.40;75.66;98347.47;4966546;28;20053;-69
2022/09/27 02:19:30;;;;;;;112.70;70.97;;;;;;;28.57;74.51;98343.72;4967945;28;20054;-70
2022/09/27 02:22:49;;;;;;;100.97;67.55;;;;;;;28.61;74.66;98341.91;4984458;28;20057;-68
2022/09/27 02:25:52;;;;;;;108.45;70.72;;;;;;;28.63;74.33;98347.88;4968673;28;20045;-68
2022/09/27 02:28:45;;;;;;;121.53;78.57;;;;;;;28.35;74.53;98351.22;4968820;28;20061;-68
2022/09/27 02:31:40;;;;;;;113.68;77.70;;;;;;;28.40;74.12;98352.97;4964737;28;20562;-69
2022/09/27 02:34:39;;;;;;;124.05;78.90;;;;;;;28.29;74.21;98360.88;4968453;28;20126;-68
2022/09/27 02:37:16;;;;;;;126.83;78.70;;;;;;;28.42;74.41;98361.72;4966918;28;20058;-68
2022/09/27 02:40:06;;;;;;;106.95;72.95;;;;;;;28.75;73.44;98360.88;4971290;28;20771;-67
2022/09/27 02:42:56;;;;;;;118.43;75.95;;;;;;;28.65;73.18;98365.72;4984975;28;20050;-68
2022/09/27 02:46:19;;;;;;;102.72;66.32;;;;;;;28.87;72.17;98366.41;4956266;28;20050;-69
2022/09/27 02:49:26;;;;;;;90.47;58.05;;;;;;;29.11;71.36;98367.59;4944115;28;20061;-68
2022/09/27 02:52:44;;;;;;;86.20;55.80;;;;;;;29.24;69.63;98374.75;4967774;28;20046;-68
2022/09/27 02:56:19;;;;;;;83.45;54.90;;;;;;;29.35;69.45;98378.66;4984913;28;20090;-68
2022/09/27 03:00:08;;;;;;;85.57;55.33;;;;;;;29.44;69.39;98373.78;4949070;28;20090;-69
2022/09/27 03:03:01;;;;;;;;;;;;;;;29.47;68.83;98375.88;4969204;28;20058;-69
2022/09/27 03:05:52;;;;;;;85.20;48.83;;;;;;;29.56;67.69;98377.69;4968430;28;20396;-68
2022/09/27 03:08:41;;;;;;;83.97;46.65;;;;;;;29.67;66.98;98376.91;4987069;28;20070;-68
2022/09/27 03:11:32;;;;;;;60.90;42.67;;;;;;;29.81;68.02;98379.31;4971983;28;20478;-68
2022/09/27 03:14:14;;;;;;;71.88;46.40;;;;;;;29.77;67.22;98380.34;4988075;28;20039;-68
2022/09/27 03:17:12;;;;;;;75.72;46.60;;;;;;;29.85;66.84;98385.75;4972744;28;20054;-69
2022/09/27 03:20:19;;;;;;;80.75;43.53;;;;;;;29.89;66.69;98382.28;4969511;28;20139;-69
2022/09/27 03:23:11;;;;;;;68.20;41.90;;;;;;;30.01;65.29;98385.00;4981708;28;20048;-71
2022/09/27 03:26:01;;;;;;;52.75;34.50;;;;;;;30.01;65.58;98385.00;4986096;28;20050;-69
2022/09/27 03:28:43;;;;;;;58.63;34.10;;;;;;;30.05;65.25;98381.16;4973712;28;20132;-69
2022/09/27 03:31:32;;;;;;;51.72;33.55;;;;;;;30.13;63.48;98386.91;4989389;28;20060;-69
2022/09/27 03:34:37;;;;;;;39.13;24.23;;;;;;;30.13;61.47;98387.72;4989171;28;20057;-68
2022/09/27 03:37:28;;;;;;;41.58;26.73;;;;;;;30.33;62.36;98394.25;4982163;28;20541;-68
2022/09/27 03:40:17;;;;;;;40.75;23.52;;;;;;;30.32;59.25;98400.13;4987874;28;20050;-68
2022/09/27 03:43:07;;;;;;;41.42;23.40;;;;;;;30.30;59.31;98396.88;4971818;28;20051;-68
2022/09/27 03:46:02;;;;;;;34.75;22.02;;;;;;;30.66;61.27;98395.09;4951933;28;20748;-69
2022/09/27 03:48:38;;;;;;;44.58;24.50;;;;;;;30.58;64.16;98402.41;4951191;28;20114;-69
2022/09/27 03:51:34;;;;;;;47.55;28.50;;;;;;;30.54;60.31;98398.75;4966713;28;20153;-69
2022/09/27 03:54:10;;;;;;;36.88;25.30;;;;;;;30.87;60.84;98392.88;4968593;28;20058;-70
2022/09/27 03:56:59;;;;;;;40.17;23.42;;;;;;;31.08;60.20;98400.97;4952808;28;20055;-69
2022/09/27 03:59:48;;;;;;;41.03;25.20;;;;;;;30.88;59.39;98396.44;4943028;28;20478;-69
2022/09/27 04:02:49;;;;;;;37.35;25.42;;;;;;;31.08;61.93;98398.19;4967531;28;20362;-70
2022/09/27 04:05:57;;;;;;;39.80;25.45;;;;;;;31.06;59.84;98399.72;4968245;28;20599;-70
2022/09/27 04:08:46;;;;;;;34.88;23.50;;;;;;;31.14;59.14;98396.75;4964526;28;20371;-69
2022/09/27 04:11:52;;;;;;;36.88;22.00;;;;;;;31.28;59.38;98403.78;4950639;28;20050;-69
2022/09/27 04:14:35;;;;;;;27.23;19.48;;;;;;;31.20;58.49;98397.28;4950915;28;20490;-69
2022/09/27 04:17:57;;;;;;;25.23;18.25;;;;;;;31.29;58.82;98411.75;4903657;28;20766;-70
2022/09/27 04:21:09;;;;;;;26.65;19.15;;;;;;;31.73;61.14;98411.59;4968246;28;20120;-70
2022/09/27 04:24:01;;;;;;;30.95;19.52;;;;;;;31.81;57.64;98409.78;4965636;28;20470;-70
2022/09/27 04:27:02;;;;;;;27.58;17.67;;;;;;;32.21;57.50;98410.66;4951016;28;20138;-69
2022/09/27 04:29:47;;;;;;;27.05;19.50;;;;;;;32.57;56.26;98410.19;4967105;28;20054;-70
2022/09/27 04:33:02;;;;;;;26.42;17.60;;;;;;;32.89;57.23;98414.75;4962016;28;20047;-70
2022/09/27 04:39:23;;;;;;;29.27;16.67;;;;;;;33.04;54.03;98408.25;4950298;28;20062;-70
2022/09/27 04:42:12;;;;;;;24.45;16.83;;;;;;;33.09;53.92;98407.13;4966601;28;20153;-70
2022/09/27 04:45:07;;;;;;;24.23;15.75;;;;;;;33.13;52.21;98405.25;4982293;28;20529;-69
2022/09/27 04:48:03;;;;;;;21.67;15.70;;;;;;;33.15;51.84;98400.94;5001939;28;20053;-69
2022/09/27 04:50:40;;;;;;;20.55;13.02;;;;;;;33.84;52.25;98391.63;5002702;28;20057;-71
2022/09/27 04:53:35;;;;;;;16.25;12.35;;;;;;;33.46;50.65;98403.75;4981308;28;20129;-71
2022/09/27 04:56:13;;;;;;;19.48;11.95;;;;;;;34.02;52.84;98397.41;4986054;28;20046;-70
2022/09/27 04:59:09;;;;;;;16.27;11.13;;;;;;;34.29;50.59;98405.72;4985855;28;20109;-70
2022/09/27 05:01:45;;;;;;;15.68;9.77;;;;;;;34.58;47.84;98400.47;4994391;28;20061;-70
2022/09/27 05:05:05;;;;;;;26.35;18.08;;;;;;;34.21;48.89;98398.47;4970248;28;20149;-71
2022/09/27 05:07:48;;;;;;;32.50;18.70;;;;;;;34.81;49.01;98395.53;5001146;28;20050;-71
2022/09/27 05:11:00;;;;;;;34.17;18.80;;;;;;;35.23;48.52;98399.91;4986467;28;20331;-70
2022/09/27 05:13:43;;;;;;;28.17;17.90;;;;;;;35.10;51.33;98398.56;4984164;28;20051;-71
2022/09/27 05:16:40;;;;;;;25.48;16.52;;;;;;;35.23;47.54;98401.91;4999271;28;20050;-71
2022/09/27 05:19:51;;;;;;;29.00;16.58;;;;;;;35.37;51.88;98396.44;4986196;28;20046;-71
2022/09/27 05:22:57;;;;;;;25.75;17.58;;;;;;;34.45;51.12;98389.59;4985196;28;20588;-71
2022/09/27 05:25:46;;;;;;;28.92;17.95;;;;;;;35.07;47.29;98383.41;4985610;28;20303;-71
2022/09/27 05:28:30;;;;;;;30.30;16.65;;;;;;;35.94;46.38;98381.22;5002262;28;20061;-70
2022/09/27 05:31:25;;;;;;;22.80;15.35;;;;;;;35.31;45.34;98380.44;5001519;28;20062;-71
2022/09/27 05:34:21;;;;;;;20.60;13.07;;;;;;;34.78;48.15;98382.38;4985263;28;20137;-70
2022/09/27 05:37:10;;;;;;;28.27;13.02;;;;;;;34.92;49.64;98375.31;4984766;28;20069;-73
2022/09/27 05:39:53;;;;;;;25.33;13.38;;;;;;;35.14;50.17;98377.09;4980526;28;20045;-73
2022/09/27 05:43:02;;;;;;;21.38;13.63;;;;;;;35.20;47.23;98361.63;4986605;28;20062;-72
2022/09/27 05:45:59;;;;;;;18.02;14.23;;;;;;;35.03;47.34;98370.66;4962820;28;20516;-72
2022/09/27 05:48:38;;;;;;;20.85;13.88;;;;;;;34.95;49.24;98364.22;4962277;28;20157;-73
2022/09/27 05:51:28;;;;;;;21.38;13.50;;;;;;;35.36;49.85;98360.53;4969095;28;20061;-69
2022/09/27 05:54:18;;;;;;;19.63;14.25;;;;;;;35.18;47.74;98360.41;4985531;28;20137;-74
2022/09/27 05:57:01;;;;;;;21.38;14.50;;;;;;;35.48;49.52;98357.41;4966559;28;20473;-75
2022/09/27 05:59:53;;;;;;;23.33;15.57;;;;;;;35.17;51.21;98350.41;4973498;28;20571;-75
2022/09/27 06:02:55;;;;;;;24.50;16.05;;;;;;;35.23;46.72;98358.06;4989038;28;20115;-74
2022/09/27 06:06:11;;;;;;;26.85;15.63;;;;;;;35.44;46.94;98359.38;4943047;28;20088;-74
2022/09/27 06:09:00;;;;;;;20.20;14.73;;;;;;;35.43;48.64;98360.59;4999384;28;20057;-77
2022/09/27 06:11:49;;;;;;;21.25;13.30;;;;;;;34.48;49.01;98349.81;4987501;28;20050;-72
2022/09/27 06:14:33;;;;;;;31.75;14.60;;;;;;;35.09;46.40;98350.38;4987252;28;20363;-74
2022/09/27 06:17:42;;;;;;;25.88;14.85;;;;;;;34.05;49.17;98352.13;5000547;28;20050;-74
2022/09/27 06:20:26;;;;;;;21.67;15.15;;;;;;;35.13;48.50;98352.38;4994022;28;20141;-73
2022/09/27 06:23:24;;;;;;;23.08;14.95;;;;;;;35.28;47.34;98349.31;4977416;28;20069;-74
2022/09/27 06:26:15;;;;;;;27.35;14.07;;;;;;;35.47;47.63;98344.66;4983979;28;20117;-73
2022/09/27 06:29:22;;;;;;;17.88;12.90;;;;;;;35.82;48.29;98343.28;4980871;28;20799;-73
2022/09/27 06:32:07;;;;;;;20.75;13.55;;;;;;;34.96;45.59;98339.91;4967547;28;20116;-71
2022/09/27 06:35:16;;;;;;;19.98;13.13;;;;;;;35.44;49.25;98334.28;4984955;28;20612;-72
2022/09/27 06:38:10;;;;;;;29.65;14.95;;;;;;;35.44;50.42;98334.28;4969258;28;20559;-72
2022/09/27 06:41:14;;;;;;;20.25;13.18;;;;;;;35.08;46.60;98329.25;4985253;28;20607;-71
2022/09/27 06:44:25;;;;;;;20.27;13.32;;;;;;;34.99;47.30;98330.78;4988292;28;20165;-73
2022/09/27 06:47:46;;;;;;;19.23;14.15;;;;;;;35.31;46.81;98330.22;4956715;28;20548;-72
2022/09/27 06:50:56;;;;;;;23.13;13.90;;;;;;;35.56;49.37;98327.56;4992659;28;20065;-73
2022/09/27 06:53:45;;;;;;;18.42;13.55;;;;;;;35.84;46.17;98319.34;4972550;28;20061;-72
2022/09/27 06:56:27;;;;;;;22.17;15.50;;;;;;;35.54;45.16;98308.44;4973051;28;20054;-72
2022/09/27 07:02:37;;;;;;;25.27;15.18;;;;;;;35.34;46.02;98301.53;4992480;28;20053;-70
2022/09/27 07:05:49;;;;;;;20.73;14.93;;;;;;;34.82;46.70;98293.22;4959298;28;20058;-68
2022/09/27 07:08:50;;;;;;;22.85;15.48;;;;;;;35.14;47.37;98295.41;4972483;28;20549;-69
2022/09/27 07:11:44;;;;;;;25.85;14.07;;;;;;;34.50;48.42;98288.13;4968899;28;20054;-69
2022/09/27 07:14:27;;;;;;;21.70;13.48;;;;;;;35.04;47.90;98283.78;4972703;28;20493;-74
2022/09/27 07:17:22;;;;;;;24.58;14.88;;;;;;;34.63;46.61;98275.50;4967115;28;20055;-73
2022/09/27 07:20:06;;;;;;;25.80;14.80;;;;;;;35.16;48.94;98279.06;4986261;28;20070;-73
2022/09/27 07:22:55;;;;;;;20.85;14.32;;;;;;;35.25;47.92;98271.97;4974542;28;20050;-73
2022/09/27 07:25:44;;;;;;;20.58;14.18;;;;;;;35.10;45.61;98268.31;4971103;28;20530;-73
2022/09/27 07:28:26;;;;;;;28.83;15.55;;;;;;;34.73;46.58;98260.06;4988290;28;20058;-75
2022/09/27 07:31:27;;;;;;;23.63;14.85;;;;;;;35.19;47.29;98267.19;4970485;28;20579;-73
2022/09/27 07:34:04;;;;;;;28.83;15.60;;;;;;;35.25;48.83;98254.44;4970330;28;20043;-72
2022/09/27 07:37:00;;;;;;;23.55;15.68;;;;;;;35.37;46.90;98254.13;4969255;28;20050;-73
2022/09/27 07:39:39;;;;;;;24.13;15.57;;;;;;;34.67;47.35;98248.50;4950190;28;20059;-74
2022/09/27 07:42:28;;;;;;;21.88;14.68;;;;;;;35.04;47.73;98249.53;4974200;28;20078;-75
2022/09/27 07:45:12;;;;;;;26.10;14.60;;;;;;;34.96;48.00;98247.88;4984331;28;20734;-75
2022/09/27 07:48:14;;;;;;;29.50;16.85;;;;;;;34.75;47.20;98246.56;4985683;28;20053;-73
2022/09/27 07:51:07;;;;;;;22.65;16.77;;;;;;;34.72;48.01;98233.41;4987323;28;20065;-74
2022/09/27 07:54:07;;;;;;;24.88;16.73;;;;;;;34.94;49.41;98236.34;4990419;28;20053;-73
2022/09/27 07:56:55;;;;;;;27.08;16.85;;;;;;;34.73;48.53;98229.41;4971525;28;20754;-73
2022/09/27 07:59:56;;;;;;;24.67;16.00;;;;;;;34.41;48.56;98224.38;4988069;28;20057;-73
2022/09/27 08:02:47;;;;;;;31.95;17.48;;;;;;;34.68;47.20;98216.66;4988710;28;20445;-74
2022/09/27 08:05:36;;;;;;;28.08;17.85;;;;;;;34.96;46.26;98223.59;4987764;28;20105;-73
2022/09/27 08:08:19;;;;;;;28.80;17.92;;;;;;;34.26;47.81;98215.09;4995175;28;20145;-73
2022/09/27 08:11:15;;;;;;;29.27;18.50;;;;;;;34.53;51.00;98209.34;4971192;28;20347;-75
2022/09/27 08:13:57;;;;;;;28.42;18.80;;;;;;;34.38;50.25;98202.88;4988691;28;20129;-74
2022/09/27 08:16:56;;;;;;;27.02;17.60;;;;;;;34.16;49.73;98198.28;4971395;28;20084;-73
2022/09/27 08:20:05;;;;;;;30.40;17.83;;;;;;;34.28;48.84;98198.00;4985831;28;20054;-74
2022/09/27 08:22:53;;;;;;;30.17;17.65;;;;;;;34.59;49.68;98195.84;4968087;28;20296;-72
2022/09/27 08:25:54;;;;;;;21.10;16.92;;;;;;;34.45;50.50;98189.00;5004350;28;20054;-72
2022/09/27 08:28:56;;;;;;;26.65;17.08;;;;;;;34.23;48.41;98190.81;4956837;28;20039;-71
2022/09/27 08:31:54;;;;;;;26.38;17.27;;;;;;;34.23;52.41;98179.66;4983527;28;20755;-74
2022/09/27 08:34:36;;;;;;;21.98;17.08;;;;;;;33.99;51.20;98185.78;4958614;28;20054;-73
2022/09/27 08:37:34;;;;;;;25.60;17.83;;;;;;;34.07;52.24;98177.13;4989587;28;20058;-73
2022/09/27 08:40:16;;;;;;;28.48;17.58;;;;;;;33.81;50.30;98172.50;5000901;28;20724;-71
2022/09/27 08:43:27;;;;;;;29.45;18.67;;;;;;;33.72;52.72;98160.84;4987895;28;20157;-71
2022/09/27 08:46:40;;;;;;;29.42;18.80;;;;;;;33.45;53.30;98165.72;4970063;28;20046;-70
2022/09/27 08:49:38;;;;;;;28.58;20.08;;;;;;;33.51;53.89;98164.97;4969885;28;20884;-71
2022/09/27 08:52:26;;;;;;;27.90;20.27;;;;;;;33.35;53.48;98158.84;4985496;28;20496;-72
2022/09/27 08:55:46;;;;;;;35.17;22.02;;;;;;;33.21;52.39;98145.59;4983292;28;20133;-72
2022/09/27 08:58:34;;;;;;;30.17;22.83;;;;;;;33.19;56.08;98156.28;4986738;28;20074;-70
2022/09/27 09:01:28;;;;;;;33.55;23.42;;;;;;;33.41;55.16;98146.19;4985151;28;20054;-71
2022/09/27 09:04:35;;;;;;;41.38;24.00;;;;;;;33.37;53.24;98141.78;4983862;28;20042;-72
2022/09/27 09:07:41;;;;;;;28.13;22.90;;;;;;;33.34;56.47;98141.38;4974517;28;20042;-73
2022/09/27 09:14:36;;;;;;;32.10;21.75;;;;;;;33.43;52.84;98138.28;4967771;28;20064;-72
2022/09/27 09:17:35;;;;;;;27.83;19.02;;;;;;;33.47;54.22;98135.53;4976639;28;20046;-73
2022/09/27 09:21:06;;;;;;;31.85;21.27;;;;;;;33.44;55.26;98133.50;4985874;28;20878;-72
2022/09/27 09:23:57;;;;;;;31.00;20.73;;;;;;;33.33;56.91;98128.63;4986106;28;20601;-73
2022/09/27 09:27:28;;;;;;;28.10;21.27;;;;;;;33.37;52.64;98123.13;4966983;28;20137;-73
2022/09/27 09:30:07;;;;;;;32.30;23.20;;;;;;;33.24;54.42;98119.78;4966825;28;20054;-74
2022/09/27 09:33:28;;;;;;;34.30;23.70;;;;;;;33.31;56.35;98119.88;4951315;28;20042;-74
2022/09/27 09:36:16;;;;;;;31.20;24.45;;;;;;;33.23;54.38;98114.59;4950237;28;20053;-74
2022/09/27 09:39:20;;;;;;;32.28;24.05;;;;;;;33.28;53.58;98120.63;4951477;28;20046;-74
2022/09/27 09:42:06;;;;;;;33.72;23.42;;;;;;;33.33;54.32;98119.50;4968831;28;20899;-73
2022/09/27 09:45:29;;;;;;;38.92;25.45;;;;;;;33.25;54.56;98110.28;4969265;28;20128;-72
2022/09/27 09:48:31;;;;;;;33.67;22.38;;;;;;;33.11;54.14;98104.53;4977216;28;20145;-73
2022/09/27 09:51:26;;;;;;;36.40;23.25;;;;;;;33.06;54.90;98100.09;4985985;28;20068;-73
2022/09/27 09:54:21;;;;;;;27.58;21.85;;;;;;;33.27;56.25;98101.56;4985947;28;20372;-70
2022/09/27 09:57:37;;;;;;;27.88;21.42;;;;;;;33.54;54.69;98102.22;4978436;28;20109;-73
2022/09/27 10:00:33;;;;;;;37.53;22.63;;;;;;;33.37;55.81;98100.88;4986679;28;20398;-72
2022/09/27 10:03:16;;;;;;;34.45;23.65;;;;;;;32.86;56.43;98099.44;4982467;28;20050;-73
2022/09/27 10:06:08;;;;;;;36.45;22.08;;;;;;;33.05;56.54;98103.25;4961897;28;20042;-71
2022/09/27 10:08:53;;;;;;;31.98;21.85;;;;;;;32.99;56.32;98096.44;4986166;28;20062;-70
2022/09/27 10:11:55;;;;;;;25.52;21.48;;;;;;;33.01;55.42;98082.94;4969523;28;20058;-71
2022/09/27 10:14:37;;;;;;;36.88;23.02;;;;;;;32.88;57.06;98094.31;4969442;28;20427;-71
2022/09/27 10:17:35;;;;;;;37.50;21.73;;;;;;;32.91;57.31;98090.78;4988028;28;20050;-71
2022/09/27 10:20:35;;;;;;;33.75;21.55;;;;;;;32.63;55.31;98090.41;4993257;28;20058;-72
2022/09/27 10:23:20;;;;;;;;;;;;;;;32.83;56.13;98089.09;4992809;28;20054;-72
2022/09/27 10:26:18;;;;;;;;;;;;;;;32.87;56.33;98095.50;4982174;28;19933;-72
2022/09/27 10:29:28;;;;;;;28.05;21.73;;;;;;;32.70;56.15;98096.88;4995453;28;20630;-72
2022/09/27 10:32:36;;;;;;;30.05;22.77;;;;;;;32.81;57.44;98096.19;5011994;28;20890;-74
2022/09/27 10:35:49;;;;;;;36.10;21.10;;;;;;;31.99;58.64;98099.34;4980365;28;20474;-71
2022/09/27 10:38:54;;;;;;;33.88;22.30;;;;;;;32.03;58.71;98108.56;4975367;28;20053;-71
2022/09/27 10:41:46;;;;;;;37.47;26.55;;;;;;;31.96;61.69;98125.06;4977705;28;20060;-72
2022/09/27 10:44:51;;;;;;;39.63;28.67;;;;;;;30.86;65.56;98124.50;4971725;28;20043;-73
2022/09/27 10:47:46;;;;;;;36.67;27.35;;;;;;;30.40;67.20;98136.13;4991738;28;20060;-71
2022/09/27 10:51:07;;;;;;;27.10;19.02;;;;;;;29.60;64.90;98122.28;4976357;28;20061;-72
2022/09/27 10:54:00;;;;;;;29.15;21.45;;;;;;;29.93;66.24;98118.41;5011199;28;20050;-73
2022/09/27 10:56:49;;;;;;;26.33;19.98;;;;;;;29.56;64.23;98112.25;5004061;28;20568;-69
2022/09/27 10:59:43;;;;;;;23.55;18.50;;;;;;;29.57;65.38;98116.66;4977094;28;20061;-74
2022/09/27 11:02:33;;;;;;;25.73;18.85;;;;;;;29.39;66.11;98113.41;4992421;28;20062;-73
2022/09/27 11:05:32;;;;;;;24.15;18.70;;;;;;;29.40;67.01;98106.72;4991938;28;20061;-72
2022/09/27 11:08:18;;;;;;;27.90;20.17;;;;;;;29.50;68.36;98111.72;4983789;28;20058;-73
2022/09/27 11:11:13;;;;;;;32.70;19.60;;;;;;;29.27;69.01;98120.63;4991924;28;20057;-69
2022/09/27 11:14:06;;;;;;;21.77;18.70;;;;;;;29.39;70.10;98122.50;4989955;28;20042;-73
2022/09/27 11:17:14;;;;;;;22.60;19.23;;;;;;;29.82;69.13;98114.56;4644026;28;10000054;-73
2022/09/27 11:20:19;;;;;;;25.38;20.85;;;;;;;29.99;70.66;98110.63;4984369;28;20050;-74
2022/09/27 11:23:37;;;;;;;23.35;17.77;;;;;;;30.22;66.05;98108.81;4988556;28;20099;-74
2022/09/27 11:27:11;;;;;;;27.45;20.73;;;;;;;30.42;66.24;98106.13;4972702;28;20510;-74
2022/09/27 11:30:16;;;;;;;33.85;22.58;;;;;;;30.42;66.46;98108.88;4986343;28;20054;-74
2022/09/27 11:33:39;;;;;;;41.28;28.20;;;;;;;30.51;66.60;98106.72;4968821;28;20089;-76
2022/09/27 11:36:48;;;;;;;35.92;28.10;;;;;;;30.58;66.13;98106.91;4960526;28;20054;-78
2022/09/27 11:40:08;;;;;;;37.05;28.48;;;;;;;30.57;68.25;98104.47;4934583;28;20061;-77
2022/09/27 11:43:13;;;;;;;34.85;27.38;;;;;;;30.55;68.89;98110.38;4935812;28;20066;-76
2022/09/27 11:46:36;;;;;;;35.83;29.13;;;;;;;30.60;68.07;98101.78;4965906;28;20109;-76
2022/09/27 11:49:46;;;;;;;38.42;28.67;;;;;;;30.51;66.85;98106.72;4966982;28;20055;-77
2022/09/27 11:52:53;;;;;;;35.65;26.60;;;;;;;30.48;69.03;98104.69;4950569;28;20054;-75
2022/09/27 11:55:45;;;;;;;35.13;27.70;;;;;;;30.51;68.04;98109.50;4950874;28;20386;-76
2022/09/27 11:59:03;;;;;;;41.03;27.38;;;;;;;30.58;68.87;98103.34;4963208;28;20066;-76
2022/09/27 12:02:12;;;;;;;39.88;28.83;;;;;;;30.60;68.30;98103.78;4960398;28;20501;-77
2022/09/27 12:05:19;;;;;;;41.70;27.30;;;;;;;30.60;69.35;98107.34;4988318;28;20194;-77
2022/09/27 12:08:31;;;;;;;39.60;27.38;;;;;;;30.58;69.57;98098.59;4971099;28;20142;-76
2022/09/27 12:11:49;;;;;;;44.33;28.53;;;;;;;30.67;68.26;98106.69;4973701;28;20058;-76
2022/09/27 12:14:43;;;;;;;42.92;29.38;;;;;;;30.63;69.41;98097.53;4987411;28;20544;-76
2022/09/27 12:34:45;;;;;;;41.67;31.30;;;;;;;30.29;71.26;98102.66;4988248;28;20139;-76
2022/09/27 12:37:46;;;;;;;45.22;32.42;;;;;;;30.22;69.61;98111.59;4970781;28;20137;-76
2022/09/27 12:40:46;;;;;;;43.75;29.75;;;;;;;30.17;69.05;98111.06;4972833;28;20057;-77
2022/09/27 12:43:47;;;;;;;43.72;29.02;;;;;;;30.17;69.53;98095.28;4958357;28;20061;-77
2022/09/27 12:47:15;;;;;;;45.15;30.65;;;;;;;30.19;68.91;98100.41;4970239;28;20042;-76
2022/09/27 12:50:35;;;;;;;50.60;30.58;;;;;;;30.16;68.81;98104.72;4970158;28;20058;-76
2022/09/27 12:54:04;;;;;;;46.63;30.58;;;;;;;30.10;67.64;98108.94;4986885;28;20482;-76
2022/09/27 12:56:59;;;;;;;43.15;29.77;;;;;;;30.04;68.45;98104.84;4938630;28;20057;-77
2022/09/27 13:00:14;;;;;;;52.17;31.58;;;;;;;29.98;68.68;98109.84;4986587;28;20073;-77
2022/09/27 13:03:19;;;;;;;47.25;32.42;;;;;;;29.92;68.85;98104.91;4967078;28;20062;-77
2022/09/27 13:06:23;;;;;;;48.45;31.17;;;;;;;29.92;68.96;98105.72;4968727;28;20145;-74
2022/09/27 13:09:55;;;;;;;50.40;33.67;;;;;;;29.95;69.25;98115.28;4971584;28;20054;-74
2022/09/27 13:12:53;;;;;;;58.25;33.92;;;;;;;29.88;70.38;98109.56;4986819;28;20053;-75
2022/09/27 13:15:45;;;;;;;54.97;36.03;;;;;;;29.99;70.21;98116.16;4988662;28;20047;-75
2022/09/27 13:18:42;;;;;;;54.00;34.67;;;;;;;29.88;70.64;98115.88;4982078;28;20062;-75
2022/09/27 13:21:46;;;;;;;49.65;36.35;;;;;;;29.81;71.19;98113.75;4965536;28;20066;-74
2022/09/27 13:24:45;;;;;;;53.90;37.10;;;;;;;29.77;71.47;98126.69;4982602;28;20120;-74
2022/09/27 13:28:01;;;;;;;46.30;35.60;;;;;;;29.76;72.18;98122.31;4967274;28;20401;-79
2022/09/27 13:30:44;;;;;;;55.75;38.13;;;;;;;29.73;72.25;98119.44;4953195;28;20061;-75
2022/09/27 13:33:40;;;;;;;53.45;35.30;;;;;;;29.73;72.60;98122.22;4968611;28;20061;-71
2022/09/27 13:36:36;;;;;;;59.83;39.05;;;;;;;29.66;73.33;98131.91;4983815;28;20141;-76
2022/09/27 13:39:21;;;;;;;69.50;38.28;;;;;;;29.63;73.56;98126.28;4981876;28;20072;-75
2022/09/27 13:43:02;;;;;;;52.88;37.50;;;;;;;29.70;73.37;98134.78;4906093;29;20134;-75
2022/09/27 13:46:19;;;;;;;56.00;38.43;;;;;;;29.70;73.95;98134.78;4889124;29;20500;-74
2022/09/27 13:49:25;;;;;;;59.53;39.08;;;;;;;29.70;73.56;98143.06;4980296;28;20367;-73
2022/09/27 13:52:37;;;;;;;61.47;39.05;;;;;;;29.65;74.30;98146.88;4983713;28;20204;-77
2022/09/27 13:55:55;;;;;;;55.90;37.38;;;;;;;29.67;73.89;98144.59;4972799;28;20494;-75
2022/09/27 13:58:57;;;;;;;66.20;39.85;;;;;;;29.64;74.22;98145.28;4984489;28;20054;-74
2022/09/27 14:02:08;;;;;;;71.10;39.85;;;;;;;29.66;74.35;98153.25;4955886;28;20136;-75
2022/09/27 14:04:58;;;;;;;56.00;38.83;;;;;;;29.64;74.05;98152.78;4986112;28;20505;-75
2022/09/27 14:07:43;;;;;;;57.97;37.05;;;;;;;29.67;73.81;98157.59;4953253;28;20502;-75